Time,TemperatureF,DewpointF,PressureIn,WindDirection,WindDirectionDegrees,WindSpeedMPH,WindSpeedGustMPH,Humidity,HourlyPrecipIn,Conditions,Clouds,dailyrainin,SoftwareType,DateUTC
2013-09-23 00:03:00,52.9,47.2,30.14,West,270,3.5,3.5,81,0.00,CLR,BKN,0.00,WeatherDisplay:10.37,2013-09-22 22:03:00,
2013-09-23 00:08:00,53.2,47.2,30.14,SW,225,3.8,3.8,80,0.00,CLR,BKN,0.00,WeatherDisplay:10.37,2013-09-22 22:08:00,
2013-09-23 00:13:00,53.4,47.4,30.14,South,180,3.5,3.5,80,0.00,CLR,BKN,0.00,WeatherDisplay:10.37,2013-09-22 22:13:00,
2013-09-23 00:18:00,53.6,46.9,30.14,SW,225,3.5,3.5,78,0.00,CLR,BKN,0.00,WeatherDisplay:10.37,2013-09-22 22:18:00,
2013-09-23 00:23:00,53.8,47.1,30.13,SW,225,4.6,4.6,78,0.00,CLR,BKN,0.00,WeatherDisplay:10.37,2013-09-22 22:23:00,
2013-09-23 00:28:00,54.0,47.3,30.14,SW,225,4.6,4.6,78,0.00,CLR,BKN,0.00,WeatherDisplay:10.37,2013-09-22 22:28:00,
2013-09-23 00:33:00,54.1,47.4,30.14,SW,225,5.8,5.8,78,0.00,CLR,BKN,0.00,WeatherDisplay:10.37,2013-09-22 22:33:00,
2013-09-23 00:38:00,54.1,47.4,30.14,SW,225,4.6,4.6,78,0.00,CLR,BKN,0.00,WeatherDisplay:10.37,2013-09-22 22:38:00,
2013-09-23 00:43:00,54.1,47.4,30.14,SW,225,4.6,4.6,78,0.00,CLR,BKN,0.00,WeatherDisplay:10.37,2013-09-22 22:43:00,
2013-09-23 00:48:00,54.1,47.4,30.14,SW,225,5.8,5.8,78,0.00,CLR,BKN,0.00,WeatherDisplay:10.37,2013-09-22 22:48:00,
2013-09-23 00:53:00,54.1,47.8,30.14,SW,225,3.5,3.5,79,0.00,CLR,BKN,0.00,WeatherDisplay:10.37,2013-09-22 22:53:00,
2013-09-23 00:58:00,54.0,47.6,30.14,South,180,2.3,2.3,79,0.00,CLR,BKN,0.00,WeatherDisplay:10.37,2013-09-22 22:58:00,
2013-09-23 01:03:00,54.0,47.6,30.13,SW,225,3.5,3.5,79,0.00,CLR,BKN,0.00,WeatherDisplay:10.37,2013-09-22 23:03:00,
2013-09-23 01:08:00,54.0,47.6,30.13,South,180,3.5,3.5,79,0.00,CLR,BKN,0.00,WeatherDisplay:10.37,2013-09-22 23:08:00,
2013-09-23 01:13:00,54.0,47.3,30.13,South,180,3.5,3.5,78,0.00,CLR,BKN,0.00,WeatherDisplay:10.37,2013-09-22 23:13:00,
2013-09-23 01:18:00,54.0,47.3,30.13,WSW,248,3.5,3.5,78,0.00,CLR,BKN,0.00,WeatherDisplay:10.37,2013-09-22 23:18:00,
2013-09-23 01:23:00,53.8,47.1,30.13,South,180,4.6,4.6,78,0.00,CLR,BKN,0.00,WeatherDisplay:10.37,2013-09-22 23:23:00,
2013-09-23 01:28:00,53.8,47.1,30.13,South,180,4.6,4.6,78,0.00,CLR,BKN,0.00,WeatherDisplay:10.37,2013-09-22 23:28:00,
2013-09-23 01:33:00,53.8,47.1,30.13,SW,225,4.6,4.6,78,0.00,CLR,BKN,0.00,WeatherDisplay:10.37,2013-09-22 23:33:00,
2013-09-23 01:38:00,53.8,47.1,30.13,SE,135,3.5,3.5,78,0.00,CLR,BKN,0.00,WeatherDisplay:10.37,2013-09-22 23:38:00,
2013-09-23 01:43:00,53.8,47.1,30.13,South,180,3.8,3.8,78,0.00,CLR,BKN,0.00,WeatherDisplay:10.37,2013-09-22 23:43:00,
2013-09-23 01:48:00,53.8,47.1,30.13,South,180,4.6,4.6,78,0.00,CLR,BKN,0.00,WeatherDisplay:10.37,2013-09-22 23:48:00,
2013-09-23 01:53:00,53.6,46.9,30.13,SW,225,3.8,3.8,78,0.00,CLR,BKN,0.00,WeatherDisplay:10.37,2013-09-22 23:53:00,
2013-09-23 01:58:00,53.6,46.9,30.12,SW,225,4.6,4.6,78,0.00,CLR,BKN,0.00,WeatherDisplay:10.37,2013-09-22 23:58:00,
2013-09-23 02:03:00,53.6,46.9,30.12,SW,225,3.5,3.5,78,0.00,CLR,BKN,0.00,WeatherDisplay:10.37,2013-09-23 00:03:00,
2013-09-23 02:08:00,53.6,46.9,30.12,SE,135,3.5,3.5,78,0.00,CLR,BKN,0.00,WeatherDisplay:10.37,2013-09-23 00:08:00,
2013-09-23 02:13:00,53.4,47.1,30.12,SW,225,2.3,2.3,79,0.00,CLR,BKN,0.00,WeatherDisplay:10.37,2013-09-23 00:13:00,
2013-09-23 02:18:00,53.2,46.9,30.11,West,270,3.5,3.5,79,0.00,CLR,BKN,0.00,WeatherDisplay:10.37,2013-09-23 00:18:00,
2013-09-23 02:23:00,53.2,46.9,30.11,SW,225,4.6,4.6,79,0.00,CLR,BKN,0.00,WeatherDisplay:10.37,2013-09-23 00:23:00,
2013-09-23 02:28:00,53.2,46.9,30.11,SW,225,4.6,4.6,79,0.00,CLR,BKN,0.00,WeatherDisplay:10.37,2013-09-23 00:28:00,
2013-09-23 02:33:00,53.2,46.9,30.11,SW,225,3.5,0.0,79,0.00,CLR,BKN,0.00,WeatherDisplay:10.37,2013-09-23 00:33:00,
2013-09-23 02:38:00,53.4,47.4,30.11,North,0,3.5,3.5,80,0.00,CLR,BKN,0.00,WeatherDisplay:10.37,2013-09-23 00:38:00,
2013-09-23 02:43:00,53.2,47.2,30.12,North,0,5.4,5.4,80,0.00,CLR,BKN,0.00,WeatherDisplay:10.37,2013-09-23 00:43:00,
2013-09-23 02:48:00,53.2,47.2,30.11,NE,45,1.6,1.6,80,0.00,BKN,,0.00,WeatherDisplay:10.37,2013-09-23 00:48:00,
2013-09-23 02:53:00,53.1,47.4,30.11,North,0,2.3,0.0,81,0.00,BKN,,0.00,WeatherDisplay:10.37,2013-09-23 00:53:00,
2013-09-23 02:58:00,52.9,47.2,30.11,East,90,1.2,0.0,81,0.00,BKN,,0.00,WeatherDisplay:10.37,2013-09-23 00:58:00,
2013-09-23 03:03:00,52.7,47.0,30.11,East,90,1.2,0.0,81,0.00,BKN,,0.00,WeatherDisplay:10.37,2013-09-23 01:03:00,
2013-09-23 03:08:00,52.5,46.9,30.11,East,90,1.6,1.6,81,0.00,BKN,,0.00,WeatherDisplay:10.37,2013-09-23 01:08:00,
2013-09-23 03:13:00,52.5,47.2,30.10,South,180,3.5,3.5,82,0.00,BKN,,0.00,WeatherDisplay:10.37,2013-09-23 01:13:00,
2013-09-23 03:18:00,52.5,47.2,30.09,South,180,2.3,2.3,82,0.00,SCT,BKN,0.00,WeatherDisplay:10.37,2013-09-23 01:18:00,
2013-09-23 03:23:00,52.5,47.5,30.09,SW,225,3.5,0.0,83,0.00,SCT,BKN,0.00,WeatherDisplay:10.37,2013-09-23 01:23:00,
2013-09-23 03:28:00,52.5,47.5,30.09,SW,225,2.3,2.3,83,0.00,SCT,BKN,0.00,WeatherDisplay:10.37,2013-09-23 01:28:00,
2013-09-23 03:33:00,52.5,47.5,30.09,East,90,1.6,0.0,83,0.00,SCT,BKN,0.00,WeatherDisplay:10.37,2013-09-23 01:33:00,
2013-09-23 03:38:00,52.5,47.5,30.09,North,0,3.8,3.8,83,0.00,SCT,BKN,0.00,WeatherDisplay:10.37,2013-09-23 01:38:00,
2013-09-23 03:43:00,52.7,47.7,30.09,NW,315,1.6,0.0,83,0.00,SCT,BKN,0.00,WeatherDisplay:10.37,2013-09-23 01:43:00,
2013-09-23 03:48:00,52.7,47.7,30.09,SW,225,5.8,5.8,83,0.00,SCT,BKN,0.00,WeatherDisplay:10.37,2013-09-23 01:48:00,
2013-09-23 03:53:00,53.1,48.0,30.09,WNW,292,3.8,3.8,83,0.00,SCT,BKN,0.00,WeatherDisplay:10.37,2013-09-23 01:53:00,
2013-09-23 03:58:00,53.2,48.5,30.08,WSW,248,3.5,3.5,84,0.00,SCT,BKN,0.00,WeatherDisplay:10.37,2013-09-23 01:58:00,
2013-09-23 04:03:00,53.4,48.7,30.08,SW,225,3.8,3.8,84,0.00,SCT,BKN,0.00,WeatherDisplay:10.37,2013-09-23 02:03:00,
2013-09-23 04:08:00,54.1,49.1,30.08,SW,225,5.8,5.8,83,0.00,SCT,BKN,0.00,WeatherDisplay:10.37,2013-09-23 02:08:00,
2013-09-23 04:13:00,54.5,49.4,30.08,NW,315,3.5,3.5,83,0.00,SCT,BKN,0.00,WeatherDisplay:10.37,2013-09-23 02:13:00,
2013-09-23 04:18:00,54.7,49.3,30.07,SW,225,3.5,3.5,82,0.00,CLR,BKN,0.00,WeatherDisplay:10.37,2013-09-23 02:18:00,
2013-09-23 04:23:00,54.7,49.3,30.07,South,180,2.2,2.2,82,0.00,CLR,BKN,0.00,WeatherDisplay:10.37,2013-09-23 02:23:00,
2013-09-23 04:28:00,54.7,49.3,30.07,WNW,292,3.5,3.5,82,0.00,CLR,BKN,0.00,WeatherDisplay:10.37,2013-09-23 02:28:00,
2013-09-23 04:33:00,54.7,49.3,30.07,North,0,2.2,2.2,82,0.00,CLR,BKN,0.00,WeatherDisplay:10.37,2013-09-23 02:33:00,
2013-09-23 04:38:00,54.5,49.1,30.08,NE,45,3.8,3.8,82,0.00,CLR,BKN,0.00,WeatherDisplay:10.37,2013-09-23 02:38:00,
2013-09-23 04:43:00,54.3,48.9,30.08,North,0,2.3,2.3,82,0.00,CLR,BKN,0.00,WeatherDisplay:10.37,2013-09-23 02:43:00,
2013-09-23 04:48:00,54.0,48.6,30.07,NW,315,4.6,4.6,82,0.00,FEW,BKN,0.00,WeatherDisplay:10.37,2013-09-23 02:48:00,
2013-09-23 04:53:00,53.8,48.4,30.07,NE,45,2.2,2.2,82,0.00,FEW,BKN,0.00,WeatherDisplay:10.37,2013-09-23 02:53:00,
2013-09-23 04:58:00,53.6,48.6,30.07,North,0,3.5,3.5,83,0.00,FEW,BKN,0.00,WeatherDisplay:10.37,2013-09-23 02:58:00,
2013-09-23 05:03:00,53.6,48.6,30.07,NE,45,2.3,2.3,83,0.00,FEW,BKN,0.00,WeatherDisplay:10.37,2013-09-23 03:03:00,
2013-09-23 05:08:00,53.6,48.6,30.07,North,0,2.3,2.3,83,0.00,FEW,BKN,0.00,WeatherDisplay:10.37,2013-09-23 03:08:00,
2013-09-23 05:13:00,54.0,49.2,30.07,North,0,9.2,9.2,84,0.00,FEW,BKN,0.00,WeatherDisplay:10.37,2013-09-23 03:13:00,
2013-09-23 05:18:00,54.9,50.1,30.06,NE,45,5.8,5.8,84,0.00,CLR,BKN,0.00,WeatherDisplay:10.37,2013-09-23 03:18:00,
2013-09-23 05:23:00,55.2,50.1,30.06,NW,315,5.8,5.8,83,0.00,CLR,BKN,0.00,WeatherDisplay:10.37,2013-09-23 03:23:00,
2013-09-23 05:28:00,55.6,50.5,30.06,NW,315,5.8,5.8,83,0.00,CLR,BKN,0.00,WeatherDisplay:10.37,2013-09-23 03:28:00,
2013-09-23 05:33:00,55.9,50.9,30.06,WNW,292,8.1,8.1,83,0.00,CLR,BKN,0.00,WeatherDisplay:10.37,2013-09-23 03:33:00,
2013-09-23 05:38:00,56.5,51.1,30.06,NW,315,12.7,12.7,82,0.00,CLR,BKN,0.00,WeatherDisplay:10.37,2013-09-23 03:38:00,
2013-09-23 05:43:00,57.0,51.2,30.05,NW,315,15.0,15.0,81,0.00,CLR,BKN,0.00,WeatherDisplay:10.37,2013-09-23 03:43:00,
2013-09-23 05:48:00,57.6,50.8,30.05,West,270,16.1,16.1,78,0.00,CLR,BKN,0.00,WeatherDisplay:10.37,2013-09-23 03:48:00,
2013-09-23 05:53:00,57.9,50.4,30.06,NW,315,12.7,12.7,76,0.00,CLR,BKN,0.00,WeatherDisplay:10.37,2013-09-23 03:53:00,
2013-09-23 05:59:00,57.9,50.4,30.05,North,0,8.1,8.1,76,0.00,CLR,BKN,0.00,WeatherDisplay:10.37,2013-09-23 03:59:00,
2013-09-23 06:01:00,57.9,50.4,30.06,North,0,8.1,8.1,76,0.00,CLR,BKN,0.00,WeatherDisplay:10.37,2013-09-23 04:01:00,
2013-09-23 06:02:00,57.9,50.4,30.05,North,0,6.9,6.9,76,0.00,CLR,BKN,0.00,WeatherDisplay:10.37,2013-09-23 04:02:00,
2013-09-23 06:03:00,57.9,50.4,30.05,North,0,6.9,6.9,76,0.00,CLR,BKN,0.00,WeatherDisplay:10.37,2013-09-23 04:03:00,
2013-09-23 06:07:00,57.9,50.4,30.06,NW,315,6.9,6.9,76,0.00,CLR,BKN,0.00,WeatherDisplay:10.37,2013-09-23 04:07:00,
2013-09-23 06:10:00,57.9,50.4,30.06,NW,315,6.9,6.9,76,0.00,CLR,BKN,0.00,WeatherDisplay:10.37,2013-09-23 04:10:00,
2013-09-23 06:15:00,58.1,50.6,30.06,West,270,8.3,8.3,76,0.00,CLR,BKN,0.00,WeatherDisplay:10.37,2013-09-23 04:15:00,
2013-09-23 06:20:00,58.1,50.2,30.06,NW,315,9.2,9.2,75,0.00,SCT,BKN,0.00,WeatherDisplay:10.37,2013-09-23 04:20:00,
2013-09-23 06:25:00,58.1,50.2,30.06,North,0,8.1,8.1,75,0.00,SCT,BKN,0.00,WeatherDisplay:10.37,2013-09-23 04:25:00,
2013-09-23 06:30:00,58.3,50.4,30.06,West,270,12.7,12.7,75,0.00,SCT,BKN,0.00,WeatherDisplay:10.37,2013-09-23 04:30:00,
2013-09-23 06:35:00,58.6,50.4,30.06,NW,315,14.5,14.5,74,0.00,SCT,BKN,0.00,WeatherDisplay:10.37,2013-09-23 04:35:00,
2013-09-23 06:40:00,58.6,50.4,30.05,WNW,292,9.2,9.2,74,0.00,SCT,BKN,0.00,WeatherDisplay:10.37,2013-09-23 04:40:00,
2013-09-23 06:45:00,58.6,50.4,30.05,SW,225,8.1,8.1,74,0.00,SCT,BKN,0.00,WeatherDisplay:10.37,2013-09-23 04:45:00,
2013-09-23 06:50:00,58.6,50.4,30.05,WSW,248,8.1,8.1,74,0.00,BKN,,0.00,WeatherDisplay:10.37,2013-09-23 04:50:00,
2013-09-23 06:55:00,58.8,50.5,30.05,West,270,10.7,10.7,74,0.00,BKN,,0.00,WeatherDisplay:10.37,2013-09-23 04:55:00,
2013-09-23 07:00:00,58.8,50.5,30.05,West,270,15.0,15.0,74,0.00,BKN,,0.00,WeatherDisplay:10.37,2013-09-23 05:00:00,
2013-09-23 07:05:00,59.0,50.4,30.05,SSE,158,13.8,13.8,73,0.00,BKN,,0.00,WeatherDisplay:10.37,2013-09-23 05:05:00,
2013-09-23 07:10:00,59.0,50.4,30.05,SW,225,5.8,5.8,73,0.00,BKN,,0.00,WeatherDisplay:10.37,2013-09-23 05:10:00,
2013-09-23 07:15:00,59.0,50.4,30.05,West,270,8.1,8.1,73,0.00,BKN,,0.00,WeatherDisplay:10.37,2013-09-23 05:15:00,
2013-09-23 07:20:00,59.0,50.4,30.05,West,270,8.1,8.1,73,0.00,CLR,BKN,0.00,WeatherDisplay:10.37,2013-09-23 05:20:00,
2013-09-23 07:25:00,59.0,50.4,30.05,NW,315,8.1,8.1,73,0.00,CLR,BKN,0.00,WeatherDisplay:10.37,2013-09-23 05:25:00,
2013-09-23 07:30:00,59.0,50.4,30.05,SSE,158,5.8,5.8,73,0.00,CLR,BKN,0.00,WeatherDisplay:10.37,2013-09-23 05:30:00,
2013-09-23 07:35:00,59.0,50.7,30.05,North,0,6.9,6.9,74,0.00,CLR,BKN,0.00,WeatherDisplay:10.37,2013-09-23 05:35:00,
2013-09-23 07:40:00,59.2,50.9,30.05,NW,315,6.0,6.0,74,0.00,CLR,BKN,0.00,WeatherDisplay:10.37,2013-09-23 05:40:00,
2013-09-23 07:45:00,59.4,51.1,30.05,SE,135,5.8,5.8,74,0.00,CLR,BKN,0.00,WeatherDisplay:10.37,2013-09-23 05:45:00,
2013-09-23 07:50:00,59.4,51.1,30.04,NE,45,6.9,6.9,74,0.00,CLR,BKN,0.00,WeatherDisplay:10.37,2013-09-23 05:50:00,
2013-09-23 07:55:00,59.4,51.1,30.04,NW,315,5.8,5.8,74,0.00,CLR,BKN,0.00,WeatherDisplay:10.37,2013-09-23 05:55:00,
2013-09-23 08:00:00,59.5,51.2,30.04,WNW,292,10.4,10.4,74,0.00,CLR,BKN,0.00,WeatherDisplay:10.37,2013-09-23 06:00:00,
2013-09-23 08:05:00,59.5,51.2,30.04,WNW,292,10.4,10.4,74,0.00,CLR,BKN,0.00,WeatherDisplay:10.37,2013-09-23 06:05:00,
2013-09-23 08:10:00,59.7,51.4,30.04,West,270,10.4,10.4,74,0.00,CLR,BKN,0.00,WeatherDisplay:10.37,2013-09-23 06:10:00,
2013-09-23 08:15:00,59.9,51.2,30.04,North,0,10.4,10.4,73,0.00,CLR,BKN,0.00,WeatherDisplay:10.37,2013-09-23 06:15:00,
2013-09-23 08:20:00,59.9,51.2,30.03,NW,315,6.9,6.9,73,0.00,CLR,BKN,0.00,WeatherDisplay:10.37,2013-09-23 06:20:00,
2013-09-23 08:25:00,59.9,51.2,30.04,NW,315,8.1,8.1,73,0.00,CLR,BKN,0.00,WeatherDisplay:10.37,2013-09-23 06:25:00,
2013-09-23 08:30:00,60.1,51.4,30.04,NW,315,11.4,11.4,73,0.00,CLR,BKN,0.00,WeatherDisplay:10.37,2013-09-23 06:30:00,
2013-09-23 08:35:00,60.1,51.4,30.04,NW,315,11.4,11.4,73,0.00,CLR,BKN,0.00,WeatherDisplay:10.37,2013-09-23 06:35:00,
2013-09-23 08:40:00,60.1,51.4,30.04,NW,315,15.0,15.0,73,0.00,CLR,BKN,0.00,WeatherDisplay:10.37,2013-09-23 06:40:00,
2013-09-23 08:45:00,60.3,51.6,30.04,West,270,15.0,15.0,73,0.00,CLR,BKN,0.00,WeatherDisplay:10.37,2013-09-23 06:45:00,
2013-09-23 08:50:00,60.3,51.6,30.05,NW,315,11.5,11.5,73,0.00,SCT,BKN,0.00,WeatherDisplay:10.37,2013-09-23 06:50:00,
2013-09-23 08:55:00,60.3,51.6,30.04,NW,315,11.5,11.5,73,0.00,SCT,BKN,0.00,WeatherDisplay:10.37,2013-09-23 06:55:00,
2013-09-23 09:00:00,60.1,51.4,30.04,NW,315,10.4,10.4,73,0.00,SCT,BKN,0.00,WeatherDisplay:10.37,2013-09-23 07:00:00,
2013-09-23 09:05:00,60.1,51.4,30.04,SW,225,15.0,15.0,73,0.00,SCT,BKN,0.00,WeatherDisplay:10.37,2013-09-23 07:05:00,
2013-09-23 09:10:00,60.1,51.8,30.04,WNW,292,23.0,23.0,74,0.00,SCT,BKN,0.00,WeatherDisplay:10.37,2013-09-23 07:10:00,
2013-09-23 09:15:00,60.1,51.8,30.04,NW,315,13.8,13.8,74,0.00,SCT,BKN,0.00,WeatherDisplay:10.37,2013-09-23 07:15:00,
2013-09-23 09:20:00,60.4,52.1,30.04,SW,225,13.8,13.8,74,0.00,BKN,,0.00,WeatherDisplay:10.37,2013-09-23 07:20:00,
2013-09-23 09:25:00,60.8,52.1,30.03,WNW,292,13.8,13.8,73,0.00,BKN,,0.00,WeatherDisplay:10.37,2013-09-23 07:25:00,
2013-09-23 09:30:00,61.2,52.1,30.03,West,270,15.0,15.0,72,0.00,BKN,,0.00,WeatherDisplay:10.37,2013-09-23 07:30:00,
2013-09-23 09:35:00,61.0,51.9,30.03,NW,315,12.7,12.7,72,0.00,BKN,,0.00,WeatherDisplay:10.37,2013-09-23 07:35:00,
2013-09-23 09:40:00,61.0,51.9,30.03,NW,315,14.5,14.5,72,0.00,BKN,,0.00,WeatherDisplay:10.37,2013-09-23 07:40:00,
2013-09-23 09:45:00,61.0,51.9,30.03,NW,315,18.4,18.4,72,0.00,BKN,,0.00,WeatherDisplay:10.37,2013-09-23 07:45:00,
2013-09-23 09:50:00,61.2,52.1,30.03,NW,315,17.5,17.5,72,0.00,SCT,BKN,0.00,WeatherDisplay:10.37,2013-09-23 07:50:00,
2013-09-23 09:55:00,61.3,52.2,30.03,NW,315,9.8,9.8,72,0.00,SCT,BKN,0.00,WeatherDisplay:10.37,2013-09-23 07:55:00,
2013-09-23 10:00:00,61.5,52.4,30.03,NW,315,8.1,8.1,72,0.00,SCT,BKN,0.00,WeatherDisplay:10.37,2013-09-23 08:00:00,
2013-09-23 10:05:00,61.5,52.4,30.03,NW,315,8.1,8.1,72,0.00,SCT,BKN,0.00,WeatherDisplay:10.37,2013-09-23 08:05:00,
2013-09-23 10:10:00,61.9,52.4,30.03,West,270,10.4,10.4,71,0.00,SCT,BKN,0.00,WeatherDisplay:10.37,2013-09-23 08:10:00,
2013-09-23 10:15:00,61.9,52.4,30.03,NW,315,13.8,13.8,71,0.00,SCT,BKN,0.00,WeatherDisplay:10.37,2013-09-23 08:15:00,
2013-09-23 10:20:00,61.9,52.4,30.02,NW,315,11.5,11.5,71,0.00,SCT,BKN,0.00,WeatherDisplay:10.37,2013-09-23 08:20:00,
2013-09-23 10:25:00,62.1,52.5,30.02,North,0,19.0,19.0,71,0.00,SCT,BKN,0.00,WeatherDisplay:10.37,2013-09-23 08:25:00,
2013-09-23 10:30:00,62.2,52.7,30.02,North,0,11.5,11.5,71,0.00,SCT,BKN,0.00,WeatherDisplay:10.37,2013-09-23 08:30:00,
2013-09-23 10:35:00,62.2,52.7,30.02,NW,315,15.9,15.9,71,0.00,SCT,BKN,0.00,WeatherDisplay:10.37,2013-09-23 08:35:00,
2013-09-23 10:40:00,62.4,52.9,30.02,NW,315,22.2,22.2,71,0.00,SCT,BKN,0.00,WeatherDisplay:10.37,2013-09-23 08:40:00,
2013-09-23 10:45:00,62.6,52.7,30.02,SE,135,9.8,9.8,70,0.00,SCT,BKN,0.00,WeatherDisplay:10.37,2013-09-23 08:45:00,
2013-09-23 10:50:00,62.8,52.8,30.02,North,0,19.7,19.7,70,0.00,SCT,BKN,0.00,WeatherDisplay:10.37,2013-09-23 08:50:00,
2013-09-23 10:55:00,62.8,52.5,30.01,NW,315,19.6,19.6,69,0.00,SCT,BKN,0.00,WeatherDisplay:10.37,2013-09-23 08:55:00,
2013-09-23 11:00:00,62.8,52.5,30.01,North,0,24.4,24.4,69,0.00,SCT,BKN,0.00,WeatherDisplay:10.37,2013-09-23 09:00:00,
2013-09-23 11:05:00,63.1,52.8,30.01,WSW,248,15.2,15.2,69,0.00,SCT,BKN,0.00,WeatherDisplay:10.37,2013-09-23 09:05:00,
2013-09-23 11:10:00,63.7,53.3,30.01,NW,315,23.0,23.0,69,0.00,SCT,BKN,0.00,WeatherDisplay:10.37,2013-09-23 09:10:00,
2013-09-23 11:15:00,64.4,53.6,30.01,NW,315,19.6,19.6,68,0.00,SCT,BKN,0.00,WeatherDisplay:10.37,2013-09-23 09:15:00,
2013-09-23 11:20:00,64.9,53.3,30.00,SW,225,20.6,20.6,66,0.00,BKN,,0.00,WeatherDisplay:10.37,2013-09-23 09:20:00,
2013-09-23 11:25:00,65.1,53.5,30.01,NW,315,20.7,20.7,66,0.00,BKN,,0.00,WeatherDisplay:10.37,2013-09-23 09:25:00,
2013-09-23 11:30:00,65.3,53.6,30.01,NW,315,23.0,23.0,66,0.00,BKN,,0.00,WeatherDisplay:10.37,2013-09-23 09:30:00,
2013-09-23 11:35:00,64.9,53.3,30.01,NW,315,18.4,18.4,66,0.00,BKN,,0.00,WeatherDisplay:10.37,2013-09-23 09:35:00,
2013-09-23 11:40:00,64.6,53.0,30.02,West,270,17.3,17.3,66,0.00,BKN,,0.00,WeatherDisplay:10.37,2013-09-23 09:40:00,
2013-09-23 11:45:00,64.2,53.4,30.01,NW,315,18.4,18.4,68,0.00,BKN,,0.00,WeatherDisplay:10.37,2013-09-23 09:45:00,
2013-09-23 11:50:00,64.0,53.3,30.01,North,0,13.8,13.8,68,0.00,BKN,,0.00,WeatherDisplay:10.37,2013-09-23 09:50:00,
2013-09-23 11:55:00,63.9,53.5,30.01,NW,315,15.0,15.0,69,0.00,BKN,,0.00,WeatherDisplay:10.37,2013-09-23 09:55:00,
2013-09-23 12:00:00,63.9,53.5,30.01,North,0,11.5,11.5,69,0.00,BKN,,0.00,WeatherDisplay:10.37,2013-09-23 10:00:00,
2013-09-23 12:05:00,63.9,53.5,30.01,North,0,11.5,11.5,69,0.00,BKN,,0.00,WeatherDisplay:10.37,2013-09-23 10:05:00,
2013-09-23 12:10:00,63.9,53.5,30.01,West,270,12.7,12.7,69,0.00,BKN,,0.00,WeatherDisplay:10.37,2013-09-23 10:10:00,
2013-09-23 12:15:00,64.0,53.7,30.01,NW,315,16.1,16.1,69,0.00,BKN,,0.00,WeatherDisplay:10.37,2013-09-23 10:15:00,
2013-09-23 12:20:00,64.4,54.0,30.01,NW,315,17.3,17.3,69,0.00,BKN,,0.00,WeatherDisplay:10.37,2013-09-23 10:20:00,
2013-09-23 12:25:00,64.8,54.3,30.00,NW,315,12.7,12.7,69,0.00,BKN,,0.00,WeatherDisplay:10.37,2013-09-23 10:25:00,
2013-09-23 12:30:00,65.1,54.3,30.00,West,270,21.9,21.9,68,0.00,BKN,,0.00,WeatherDisplay:10.37,2013-09-23 10:30:00,
2013-09-23 12:35:00,65.3,54.1,30.00,West,270,21.9,21.9,67,0.00,BKN,,0.00,WeatherDisplay:10.37,2013-09-23 10:35:00,
2013-09-23 12:40:00,65.1,53.9,30.00,NW,315,16.1,16.1,67,0.00,BKN,,0.00,WeatherDisplay:10.37,2013-09-23 10:40:00,
2013-09-23 12:45:00,64.9,53.7,30.00,West,270,24.2,24.2,67,0.00,BKN,,0.00,WeatherDisplay:10.37,2013-09-23 10:45:00,
2013-09-23 12:50:00,64.9,54.1,30.00,NW,315,13.7,13.7,68,0.00,BKN,,0.00,WeatherDisplay:10.37,2013-09-23 10:50:00,
2013-09-23 12:55:00,65.3,54.5,30.00,WNW,292,14.5,14.5,68,0.00,BKN,,0.00,WeatherDisplay:10.37,2013-09-23 10:55:00,
2013-09-23 13:00:00,65.5,54.2,30.00,West,270,19.6,19.6,67,0.00,BKN,,0.00,WeatherDisplay:10.37,2013-09-23 11:00:00,
2013-09-23 13:05:00,65.8,54.6,30.00,North,0,24.2,24.2,67,0.00,BKN,,0.00,WeatherDisplay:10.37,2013-09-23 11:05:00,
2013-09-23 13:10:00,66.2,54.5,30.00,NW,315,16.1,16.1,66,0.00,BKN,,0.00,WeatherDisplay:10.37,2013-09-23 11:10:00,
2013-09-23 13:15:00,66.0,54.3,30.00,NW,315,18.4,18.4,66,0.00,BKN,,0.00,WeatherDisplay:10.37,2013-09-23 11:15:00,
2013-09-23 13:20:00,65.8,54.6,30.00,NW,315,19.0,19.0,67,0.00,BKN,,0.00,WeatherDisplay:10.37,2013-09-23 11:20:00,
2013-09-23 13:25:00,65.5,54.2,30.00,NW,315,17.5,17.5,67,0.00,BKN,,0.00,WeatherDisplay:10.37,2013-09-23 11:25:00,
2013-09-23 13:30:00,65.7,54.4,30.00,NW,315,19.0,19.0,67,0.00,BKN,,0.00,WeatherDisplay:10.37,2013-09-23 11:30:00,
2013-09-23 13:35:00,65.7,54.4,29.99,NW,315,8.3,8.3,67,0.00,BKN,,0.00,WeatherDisplay:10.37,2013-09-23 11:35:00,
2013-09-23 13:40:00,65.7,54.4,29.99,North,0,12.7,12.7,67,0.00,BKN,,0.00,WeatherDisplay:10.37,2013-09-23 11:40:00,
2013-09-23 13:45:00,65.7,54.4,29.99,South,180,17.3,17.3,67,0.00,BKN,,0.00,WeatherDisplay:10.37,2013-09-23 11:45:00,
2013-09-23 13:50:00,65.7,54.0,29.99,ESE,112,17.3,17.3,66,0.00,BKN,,0.00,WeatherDisplay:10.37,2013-09-23 11:50:00,
2013-09-23 13:55:00,65.7,54.0,29.99,West,270,17.3,17.3,66,0.00,BKN,,0.00,WeatherDisplay:10.37,2013-09-23 11:55:00,
2013-09-23 14:00:00,65.7,54.0,30.00,NW,315,18.4,18.4,66,0.00,BKN,,0.00,WeatherDisplay:10.37,2013-09-23 12:00:00,
2013-09-23 14:05:00,65.7,54.0,29.99,NW,315,12.7,12.7,66,0.00,BKN,,0.00,WeatherDisplay:10.37,2013-09-23 12:05:00,
2013-09-23 14:10:00,65.7,54.4,29.99,NW,315,18.4,18.4,67,0.00,BKN,,0.00,WeatherDisplay:10.37,2013-09-23 12:10:00,
2013-09-23 14:15:00,65.7,54.4,29.99,North,0,15.2,15.2,67,0.00,BKN,,0.00,WeatherDisplay:10.37,2013-09-23 12:15:00,
2013-09-23 14:20:00,65.5,54.2,29.99,North,0,11.4,11.4,67,0.00,BKN,,0.00,WeatherDisplay:10.37,2013-09-23 12:20:00,
2013-09-23 14:25:00,65.5,54.2,29.99,NW,315,17.5,17.5,67,0.00,BKN,,0.00,WeatherDisplay:10.37,2013-09-23 12:25:00,
2013-09-23 14:30:00,65.5,54.2,29.99,West,270,18.4,18.4,67,0.00,BKN,,0.00,WeatherDisplay:10.37,2013-09-23 12:30:00,
2013-09-23 14:35:00,65.3,54.1,29.99,NW,315,26.5,26.5,67,0.00,BKN,,0.00,WeatherDisplay:10.37,2013-09-23 12:35:00,
2013-09-23 14:40:00,65.3,54.1,29.99,WNW,292,18.4,18.4,67,0.00,BKN,,0.00,WeatherDisplay:10.37,2013-09-23 12:40:00,
2013-09-23 14:45:00,65.3,54.5,29.99,NW,315,17.3,17.3,68,0.00,BKN,,0.00,WeatherDisplay:10.37,2013-09-23 12:45:00,
2013-09-23 14:50:00,65.3,54.9,29.99,West,270,19.6,19.6,69,0.00,BKN,,0.00,WeatherDisplay:10.37,2013-09-23 12:50:00,
2013-09-23 14:55:00,64.9,54.5,29.99,NW,315,15.0,15.0,69,0.00,BKN,,0.00,WeatherDisplay:10.37,2013-09-23 12:55:00,
2013-09-23 15:00:00,64.9,54.9,29.98,NW,315,6.9,6.9,70,0.00,BKN,,0.00,WeatherDisplay:10.37,2013-09-23 13:00:00,
2013-09-23 15:05:00,64.8,55.1,29.98,NW,315,17.3,17.3,71,0.00,BKN,,0.00,WeatherDisplay:10.37,2013-09-23 13:05:00,
2013-09-23 15:10:00,64.8,55.1,29.99,NW,315,15.0,15.0,71,0.00,BKN,,0.00,WeatherDisplay:10.37,2013-09-23 13:10:00,
2013-09-23 15:15:00,64.6,55.3,29.98,West,270,12.7,12.7,72,0.00,BKN,,0.00,WeatherDisplay:10.37,2013-09-23 13:15:00,
2013-09-23 15:20:00,64.6,55.3,29.99,NW,315,17.5,17.5,72,0.00,BKN,,0.00,WeatherDisplay:10.37,2013-09-23 13:20:00,
2013-09-23 15:25:00,64.6,55.3,29.98,South,180,17.3,17.3,72,0.00,BKN,,0.00,WeatherDisplay:10.37,2013-09-23 13:25:00,
2013-09-23 15:30:00,64.8,55.5,29.98,NW,315,20.7,20.7,72,0.00,BKN,,0.00,WeatherDisplay:10.37,2013-09-23 13:30:00,
2013-09-23 15:35:00,64.6,55.3,29.98,NW,315,15.0,15.0,72,0.00,BKN,,0.00,WeatherDisplay:10.37,2013-09-23 13:35:00,
2013-09-23 15:40:00,64.6,55.3,29.98,NW,315,15.0,15.0,72,0.00,BKN,,0.00,WeatherDisplay:10.37,2013-09-23 13:40:00,
2013-09-23 15:45:00,64.4,55.2,29.98,WNW,292,19.7,19.7,72,0.00,BKN,,0.00,WeatherDisplay:10.37,2013-09-23 13:45:00,
2013-09-23 15:50:00,64.4,55.2,29.98,West,270,8.1,8.1,72,0.00,SCT,BKN,0.00,WeatherDisplay:10.37,2013-09-23 13:50:00,
2013-09-23 15:55:00,64.2,55.0,29.98,West,270,15.2,15.2,72,0.00,SCT,BKN,0.00,WeatherDisplay:10.37,2013-09-23 13:55:00,
2013-09-23 16:00:00,64.2,55.4,29.98,NW,315,19.6,19.6,73,0.00,SCT,BKN,0.00,WeatherDisplay:10.37,2013-09-23 14:00:00,
2013-09-23 16:05:00,64.2,55.4,29.97,NW,315,16.1,16.1,73,0.00,SCT,BKN,0.00,WeatherDisplay:10.37,2013-09-23 14:05:00,
2013-09-23 16:10:00,63.9,55.4,29.97,NNW,338,16.8,16.8,74,0.00,SCT,BKN,0.00,WeatherDisplay:10.37,2013-09-23 14:10:00,
2013-09-23 16:15:00,63.9,55.8,29.97,NNW,338,15.0,15.0,75,0.00,SCT,BKN,0.00,WeatherDisplay:10.37,2013-09-23 14:15:00,
2013-09-23 16:20:00,63.7,55.6,29.97,West,270,10.4,10.4,75,0.00,SCT,BKN,0.00,WeatherDisplay:10.37,2013-09-23 14:20:00,
2013-09-23 16:25:00,63.5,55.8,29.97,West,270,10.7,10.7,76,0.00,SCT,BKN,0.00,WeatherDisplay:10.37,2013-09-23 14:25:00,
2013-09-23 16:30:00,63.5,56.2,29.97,West,270,8.1,8.1,77,0.00,SCT,BKN,0.00,WeatherDisplay:10.37,2013-09-23 14:30:00,
2013-09-23 16:35:00,63.3,56.0,29.96,WNW,292,10.4,10.4,77,0.00,SCT,BKN,0.00,WeatherDisplay:10.37,2013-09-23 14:35:00,
2013-09-23 16:40:00,63.1,55.8,29.97,SSW,202,15.0,15.0,77,0.00,SCT,BKN,0.00,WeatherDisplay:10.37,2013-09-23 14:40:00,
2013-09-23 16:45:00,63.0,56.0,29.97,WNW,292,15.0,15.0,78,0.00,SCT,BKN,0.00,WeatherDisplay:10.37,2013-09-23 14:45:00,
2013-09-23 16:50:00,62.8,55.8,29.97,NW,315,13.8,13.8,78,0.00,SCT,BKN,0.00,WeatherDisplay:10.37,2013-09-23 14:50:00,
2013-09-23 16:55:00,62.6,55.6,29.96,NW,315,12.7,12.7,78,0.00,SCT,BKN,0.00,WeatherDisplay:10.37,2013-09-23 14:55:00,
2013-09-23 17:00:00,62.6,55.6,29.96,NW,315,10.4,10.4,78,0.00,SCT,BKN,0.00,WeatherDisplay:10.37,2013-09-23 15:00:00,
2013-09-23 17:05:00,62.4,55.8,29.96,NW,315,9.2,9.2,79,0.00,SCT,BKN,0.00,WeatherDisplay:10.37,2013-09-23 15:05:00,
2013-09-23 17:10:00,62.6,55.6,29.96,NW,315,13.0,13.0,78,0.00,SCT,BKN,0.00,WeatherDisplay:10.37,2013-09-23 15:10:00,
2013-09-23 17:15:00,62.6,55.6,29.96,WSW,248,17.3,17.3,78,0.00,SCT,BKN,0.00,WeatherDisplay:10.37,2013-09-23 15:15:00,
2013-09-23 17:20:00,62.6,55.6,29.95,West,270,11.5,11.5,78,0.00,SCT,BKN,0.00,WeatherDisplay:10.37,2013-09-23 15:20:00,
2013-09-23 17:25:00,62.8,55.5,29.96,West,270,9.8,9.8,77,0.00,SCT,BKN,0.00,WeatherDisplay:10.37,2013-09-23 15:25:00,
2013-09-23 17:30:00,62.8,55.5,29.96,NW,315,7.6,7.6,77,0.00,SCT,BKN,0.00,WeatherDisplay:10.37,2013-09-23 15:30:00,
2013-09-23 17:35:00,62.8,55.5,29.95,WNW,292,10.4,10.4,77,0.00,SCT,BKN,0.00,WeatherDisplay:10.37,2013-09-23 15:35:00,
2013-09-23 17:40:00,62.8,55.1,29.95,NW,315,19.6,19.6,76,0.00,SCT,BKN,0.00,WeatherDisplay:10.37,2013-09-23 15:40:00,
2013-09-23 17:45:00,62.8,55.1,29.95,NW,315,12.7,12.7,76,0.00,SCT,BKN,0.00,WeatherDisplay:10.37,2013-09-23 15:45:00,
2013-09-23 17:50:00,62.8,55.1,29.95,SW,225,11.4,11.4,76,0.00,BKN,,0.00,WeatherDisplay:10.37,2013-09-23 15:50:00,
2013-09-23 17:55:00,62.8,54.7,29.95,WNW,292,15.9,15.9,75,0.00,BKN,,0.00,WeatherDisplay:10.37,2013-09-23 15:55:00,
2013-09-23 18:00:00,62.8,54.7,29.95,SW,225,12.7,12.7,75,0.00,BKN,,0.00,WeatherDisplay:10.37,2013-09-23 16:00:00,
2013-09-23 18:05:00,62.8,54.7,29.95,SW,225,4.6,4.6,75,0.00,BKN,,0.00,WeatherDisplay:10.37,2013-09-23 16:05:00,
2013-09-23 18:10:00,62.6,54.6,29.95,West,270,18.4,18.4,75,0.00,BKN,,0.00,WeatherDisplay:10.37,2013-09-23 16:10:00,
2013-09-23 18:15:00,62.6,54.6,29.95,West,270,15.2,15.2,75,0.00,BKN,,0.00,WeatherDisplay:10.37,2013-09-23 16:15:00,
2013-09-23 18:20:00,62.4,55.1,29.95,NW,315,12.7,12.7,77,0.00,CLR,BKN,0.00,WeatherDisplay:10.37,2013-09-23 16:20:00,
2013-09-23 18:25:00,62.2,55.3,29.95,SW,225,12.7,12.7,78,0.00,CLR,BKN,0.00,WeatherDisplay:10.37,2013-09-23 16:25:00,
2013-09-23 18:30:00,62.1,55.1,29.95,WSW,248,12.7,12.7,78,0.00,CLR,BKN,0.00,WeatherDisplay:10.37,2013-09-23 16:30:00,
2013-09-23 18:35:00,62.1,55.5,29.94,SW,225,15.0,15.0,79,0.00,CLR,BKN,0.00,WeatherDisplay:10.37,2013-09-23 16:35:00,
2013-09-23 18:40:00,62.1,55.5,29.94,North,0,10.7,10.7,79,0.00,CLR,BKN,0.00,WeatherDisplay:10.37,2013-09-23 16:40:00,
2013-09-23 18:45:00,62.1,55.1,29.94,West,270,10.4,10.4,78,0.00,CLR,BKN,0.00,WeatherDisplay:10.37,2013-09-23 16:45:00,
2013-09-23 18:50:00,62.2,54.9,29.93,West,270,16.1,16.1,77,0.00,CLR,BKN,0.00,WeatherDisplay:10.37,2013-09-23 16:50:00,
2013-09-23 18:55:00,62.4,54.8,29.93,NW,315,13.8,13.8,76,0.00,CLR,BKN,0.00,WeatherDisplay:10.37,2013-09-23 16:55:00,
2013-09-23 19:00:00,62.6,54.2,29.93,NW,315,20.7,20.7,74,0.00,CLR,BKN,0.00,WeatherDisplay:10.37,2013-09-23 17:00:00,
2013-09-23 19:05:00,62.8,54.0,29.94,West,270,16.1,16.1,73,0.00,CLR,BKN,0.00,WeatherDisplay:10.37,2013-09-23 17:05:00,
2013-09-23 19:10:00,63.0,54.2,29.93,NW,315,17.3,17.3,73,0.00,CLR,BKN,0.00,WeatherDisplay:10.37,2013-09-23 17:10:00,
2013-09-23 19:15:00,63.0,53.8,29.93,West,270,13.8,13.8,72,0.00,CLR,BKN,0.00,WeatherDisplay:10.37,2013-09-23 17:15:00,
2013-09-23 19:20:00,63.0,53.8,29.93,NW,315,12.7,12.7,72,0.00,CLR,BKN,0.00,WeatherDisplay:10.37,2013-09-23 17:20:00,
2013-09-23 19:25:00,62.8,53.6,29.93,West,270,11.5,11.5,72,0.00,CLR,BKN,0.00,WeatherDisplay:10.37,2013-09-23 17:25:00,
2013-09-23 19:30:00,62.8,53.6,29.93,West,270,18.4,18.4,72,0.00,CLR,BKN,0.00,WeatherDisplay:10.37,2013-09-23 17:30:00,
2013-09-23 19:35:00,63.0,53.8,29.92,NW,315,23.0,23.0,72,0.00,CLR,BKN,0.00,WeatherDisplay:10.37,2013-09-23 17:35:00,
2013-09-23 19:40:00,63.1,53.6,29.93,WSW,248,17.3,17.3,71,0.00,CLR,BKN,0.00,WeatherDisplay:10.37,2013-09-23 17:40:00,
2013-09-23 19:45:00,63.3,53.8,29.93,NW,315,24.4,24.4,71,0.00,CLR,BKN,0.00,WeatherDisplay:10.37,2013-09-23 17:45:00,
2013-09-23 19:50:00,63.5,53.5,29.92,NW,315,23.0,23.0,70,0.00,BKN,,0.00,WeatherDisplay:10.37,2013-09-23 17:50:00,
2013-09-23 19:55:00,63.5,53.5,29.92,West,270,15.2,15.2,70,0.00,BKN,,0.00,WeatherDisplay:10.37,2013-09-23 17:55:00,
2013-09-23 20:00:00,63.3,53.4,29.92,NW,315,17.3,17.3,70,0.00,BKN,,0.00,WeatherDisplay:10.37,2013-09-23 18:00:00,
2013-09-23 20:06:00,63.3,53.4,29.92,NW,315,11.5,11.5,70,0.00,BKN,,0.00,WeatherDisplay:10.37,2013-09-23 18:06:00,
2013-09-23 20:11:00,63.3,53.4,29.92,NW,315,25.1,25.1,70,0.00,BKN,,0.00,WeatherDisplay:10.37,2013-09-23 18:11:00,
2013-09-23 20:16:00,63.3,53.4,29.92,West,270,17.3,17.3,70,0.00,CLR,BKN,0.00,WeatherDisplay:10.37,2013-09-23 18:16:00,
2013-09-23 20:21:00,63.3,53.4,29.92,SW,225,19.6,19.6,70,0.00,CLR,BKN,0.00,WeatherDisplay:10.37,2013-09-23 18:21:00,
2013-09-23 20:26:00,63.3,53.4,29.92,NW,315,17.3,17.3,70,0.00,CLR,BKN,0.00,WeatherDisplay:10.37,2013-09-23 18:26:00,
2013-09-23 20:31:00,63.3,53.4,29.92,NW,315,20.7,20.7,70,0.00,CLR,BKN,0.00,WeatherDisplay:10.37,2013-09-23 18:31:00,
2013-09-23 20:36:00,63.3,53.4,29.92,WNW,292,18.4,18.4,70,0.00,CLR,BKN,0.00,WeatherDisplay:10.37,2013-09-23 18:36:00,
2013-09-23 20:41:00,63.1,53.2,29.92,NW,315,16.1,16.1,70,0.00,CLR,BKN,0.00,WeatherDisplay:10.37,2013-09-23 18:41:00,
2013-09-23 20:46:00,63.1,53.2,29.92,NW,315,17.3,17.3,70,0.00,CLR,BKN,0.00,WeatherDisplay:10.37,2013-09-23 18:46:00,
2013-09-23 20:51:00,63.1,53.2,29.91,SSE,158,19.0,19.0,70,0.00,CLR,BKN,0.00,WeatherDisplay:10.37,2013-09-23 18:51:00,
2013-09-23 20:56:00,63.0,53.0,29.92,NW,315,17.5,17.5,70,0.00,CLR,BKN,0.00,WeatherDisplay:10.37,2013-09-23 18:56:00,
2013-09-23 21:01:00,62.8,52.8,29.93,NW,315,12.7,12.7,70,0.00,CLR,BKN,0.00,WeatherDisplay:10.37,2013-09-23 19:01:00,
2013-09-23 21:06:00,62.8,52.8,29.92,NW,315,19.6,19.6,70,0.00,CLR,BKN,0.00,WeatherDisplay:10.37,2013-09-23 19:06:00,
2013-09-23 21:11:00,62.8,52.8,29.92,NW,315,18.4,18.4,70,0.00,CLR,BKN,0.00,WeatherDisplay:10.37,2013-09-23 19:11:00,
2013-09-23 21:16:00,63.1,53.2,29.92,NW,315,19.0,19.0,70,0.00,CLR,BKN,0.00,WeatherDisplay:10.37,2013-09-23 19:16:00,
2013-09-23 21:21:00,63.3,53.4,29.92,West,270,15.2,15.2,70,0.00,CLR,BKN,0.00,WeatherDisplay:10.37,2013-09-23 19:21:00,
2013-09-23 21:26:00,63.5,53.1,29.92,West,270,18.4,18.4,69,0.00,CLR,BKN,0.00,WeatherDisplay:10.37,2013-09-23 19:26:00,
2013-09-23 21:31:00,63.3,53.0,29.92,West,270,17.3,17.3,69,0.00,CLR,BKN,0.00,WeatherDisplay:10.37,2013-09-23 19:31:00,
2013-09-23 21:36:00,63.3,53.0,29.92,NW,315,19.0,19.0,69,0.00,CLR,BKN,0.00,WeatherDisplay:10.37,2013-09-23 19:36:00,
2013-09-23 21:41:00,63.3,53.0,29.92,North,0,17.3,17.3,69,0.00,CLR,BKN,0.00,WeatherDisplay:10.37,2013-09-23 19:41:00,
2013-09-23 21:46:00,63.3,53.0,29.92,West,270,19.6,19.6,69,0.00,CLR,BKN,0.00,WeatherDisplay:10.37,2013-09-23 19:46:00,
2013-09-23 21:51:00,63.3,53.0,29.92,NW,315,19.6,19.6,69,0.00,CLR,BKN,0.00,WeatherDisplay:10.37,2013-09-23 19:51:00,
2013-09-23 21:56:00,63.3,53.0,29.92,West,270,17.3,17.3,69,0.00,CLR,BKN,0.00,WeatherDisplay:10.37,2013-09-23 19:56:00,
2013-09-23 22:01:00,63.3,53.0,29.92,NW,315,13.8,13.8,69,0.00,CLR,BKN,0.00,WeatherDisplay:10.37,2013-09-23 20:01:00,
2013-09-23 22:06:00,63.3,53.0,29.92,NW,315,13.8,13.8,69,0.00,CLR,BKN,0.00,WeatherDisplay:10.37,2013-09-23 20:06:00,
2013-09-23 22:11:00,63.5,53.1,29.92,NW,315,17.3,17.3,69,0.00,CLR,BKN,0.00,WeatherDisplay:10.37,2013-09-23 20:11:00,
2013-09-23 22:16:00,63.5,53.1,29.91,SW,225,16.1,16.1,69,0.00,BKN,,0.00,WeatherDisplay:10.37,2013-09-23 20:16:00,
2013-09-23 22:21:00,63.5,53.1,29.92,North,0,20.7,20.7,69,0.00,BKN,,0.00,WeatherDisplay:10.37,2013-09-23 20:21:00,
2013-09-23 22:26:00,63.5,53.1,29.92,NW,315,22.2,22.2,69,0.00,BKN,,0.00,WeatherDisplay:10.37,2013-09-23 20:26:00,
2013-09-23 22:31:00,63.5,52.7,29.92,NW,315,19.6,19.6,68,0.00,BKN,,0.00,WeatherDisplay:10.37,2013-09-23 20:31:00,
2013-09-23 22:36:00,63.3,53.0,29.91,West,270,15.0,15.0,69,0.00,BKN,,0.00,WeatherDisplay:10.37,2013-09-23 20:36:00,
2013-09-23 22:41:00,63.3,53.0,29.92,West,270,14.5,14.5,69,0.00,BKN,,0.00,WeatherDisplay:10.37,2013-09-23 20:41:00,
2013-09-23 22:46:00,63.1,52.8,29.91,SW,225,15.0,15.0,69,0.00,CLR,BKN,0.00,WeatherDisplay:10.37,2013-09-23 20:46:00,
2013-09-23 22:51:00,63.0,52.6,29.92,WSW,248,17.3,17.3,69,0.00,CLR,BKN,0.00,WeatherDisplay:10.37,2013-09-23 20:51:00,
2013-09-23 22:56:00,63.0,52.6,29.91,North,0,13.7,13.7,69,0.00,CLR,BKN,0.00,WeatherDisplay:10.37,2013-09-23 20:56:00,
2013-09-23 23:01:00,62.8,52.8,29.92,NW,315,15.0,15.0,70,0.00,CLR,BKN,0.00,WeatherDisplay:10.37,2013-09-23 21:01:00,
2013-09-23 23:06:00,62.8,52.8,29.91,West,270,21.9,21.9,70,0.00,CLR,BKN,0.00,WeatherDisplay:10.37,2013-09-23 21:06:00,
2013-09-23 23:11:00,62.8,52.8,29.91,NW,315,21.9,21.9,70,0.00,CLR,BKN,0.00,WeatherDisplay:10.37,2013-09-23 21:11:00,
2013-09-23 23:16:00,63.0,52.6,29.92,WNW,292,20.7,20.7,69,0.00,CLR,BKN,0.00,WeatherDisplay:10.37,2013-09-23 21:16:00,
2013-09-23 23:21:00,63.0,52.6,29.92,West,270,19.6,19.6,69,0.00,CLR,BKN,0.00,WeatherDisplay:10.37,2013-09-23 21:21:00,
2013-09-23 23:26:00,63.1,52.8,29.91,SW,225,16.8,16.8,69,0.00,CLR,BKN,0.00,WeatherDisplay:10.37,2013-09-23 21:26:00,
2013-09-23 23:31:00,63.1,52.8,29.92,WNW,292,19.6,19.6,69,0.00,CLR,BKN,0.00,WeatherDisplay:10.37,2013-09-23 21:31:00,
2013-09-23 23:36:00,63.1,52.8,29.91,West,270,20.7,20.7,69,0.00,CLR,BKN,0.00,WeatherDisplay:10.37,2013-09-23 21:36:00,
2013-09-23 23:41:00,63.1,52.8,29.91,SW,225,15.9,15.9,69,0.00,CLR,BKN,0.00,WeatherDisplay:10.37,2013-09-23 21:41:00,
2013-09-23 23:46:00,63.0,52.6,29.91,NNW,338,12.7,12.7,69,0.00,CLR,BKN,0.00,WeatherDisplay:10.37,2013-09-23 21:46:00,
2013-09-23 23:51:00,62.8,52.5,29.91,WNW,292,13.8,13.8,69,0.00,CLR,BKN,0.00,WeatherDisplay:10.37,2013-09-23 21:51:00,
2013-09-23 23:56:00,62.8,52.5,29.91,NE,45,15.0,15.0,69,0.00,CLR,BKN,0.00,WeatherDisplay:10.37,2013-09-23 21:56:00,